Time;durP1;ratioP1;P1;durP2;ratioP2;P2;SDS_P1;SDS_P2;PMS_P1;PMS_P2;Temp;Humidity;BMP_temperature;BMP_pressure;BME280_temperature;BME280_humidity;BME280_pressure;Samples;Min_cycle;Max_cycle;Signal;HPM_P1;HPM_P2
2023/07/22 00:00:57;;;;;;;14.52;6.53;;;13.90;99.90;;;;;;4967516;28;20046;-81
2023/07/22 00:03:23;;;;;;;14.70;6.35;;;13.90;99.90;;;;;;4967491;28;20038;-81
2023/07/22 00:05:49;;;;;;;14.15;5.97;;;13.90;99.90;;;;;;4964250;28;20488;-81
2023/07/22 00:08:14;;;;;;;17.05;6.50;;;13.90;99.90;;;;;;4983375;28;20041;-81
2023/07/22 00:10:42;;;;;;;11.85;5.70;;;13.90;99.90;;;;;;4968580;28;20037;-81
2023/07/22 00:13:07;;;;;;;14.55;5.97;;;13.90;99.90;;;;;;4950286;28;20035;-81
2023/07/22 00:15:33;;;;;;;14.85;5.88;;;13.80;99.90;;;;;;4951293;28;20534;-81
2023/07/22 00:17:59;;;;;;;15.18;6.03;;;13.90;99.90;;;;;;4985543;28;20082;-82
2023/07/22 00:20:25;;;;;;;14.23;5.88;;;13.80;99.90;;;;;;4985162;28;20165;-81
2023/07/22 00:22:51;;;;;;;15.13;6.72;;;13.80;99.90;;;;;;4967555;28;20042;-80
2023/07/22 00:25:17;;;;;;;13.35;6.45;;;13.80;99.90;;;;;;4963067;28;20065;-81
2023/07/22 00:27:43;;;;;;;17.67;6.63;;;13.80;99.90;;;;;;4985001;28;20061;-81
2023/07/22 00:30:09;;;;;;;12.68;6.28;;;13.80;99.90;;;;;;4980210;28;20042;-80
2023/07/22 00:32:39;;;;;;;14.40;6.97;;;13.80;99.90;;;;;;4988722;28;20100;-81
2023/07/22 00:35:05;;;;;;;14.32;6.60;;;13.80;99.90;;;;;;4985819;28;20038;-81
2023/07/22 00:37:32;;;;;;;15.43;6.50;;;13.80;99.90;;;;;;4971897;28;20123;-81
2023/07/22 00:39:58;;;;;;;15.07;5.90;;;13.80;99.90;;;;;;4972173;28;20092;-81
2023/07/22 00:42:24;;;;;;;15.75;6.45;;;13.80;99.90;;;;;;4987466;28;20629;-81
2023/07/22 00:44:50;;;;;;;17.52;6.90;;;13.70;99.90;;;;;;4984480;28;20042;-81
2023/07/22 00:47:17;;;;;;;15.77;6.68;;;13.70;99.90;;;;;;4987695;28;20066;-81
2023/07/22 00:49:43;;;;;;;13.50;6.53;;;13.70;99.90;;;;;;4988404;28;20078;-81
2023/07/22 00:52:09;;;;;;;13.63;5.78;;;13.70;99.90;;;;;;4987961;28;20046;-81
2023/07/22 00:54:35;;;;;;;12.23;5.82;;;13.60;99.90;;;;;;4988171;28;20042;-81
2023/07/22 00:57:00;;;;;;;13.52;6.28;;;13.60;99.90;;;;;;4971516;28;20559;-81
2023/07/22 00:59:26;;;;;;;13.27;5.80;;;13.60;99.90;;;;;;4969438;28;20423;-81
2023/07/22 01:01:52;;;;;;;14.40;6.45;;;13.50;99.90;;;;;;4952970;28;20546;-81
2023/07/22 01:04:22;;;;;;;11.75;5.22;;;13.50;99.90;;;;;;4986118;28;20038;-81
2023/07/22 01:06:49;;;;;;;13.18;5.82;;;13.40;99.90;;;;;;4988264;28;20121;-81
2023/07/22 01:09:14;;;;;;;13.93;5.35;;;13.40;99.90;;;;;;4985316;28;20062;-81
2023/07/22 01:11:40;;;;;;;12.85;5.45;;;13.40;99.90;;;;;;4986700;28;20518;-81
2023/07/22 01:14:07;;;;;;;12.55;5.13;;;13.40;99.90;;;;;;4983394;28;20137;-81
2023/07/22 01:16:34;;;;;;;11.73;5.18;;;13.40;99.90;;;;;;4972025;28;20455;-81
2023/07/22 01:19:00;;;;;;;11.88;5.18;;;13.40;99.90;;;;;;4987478;28;20042;-81
2023/07/22 01:21:26;;;;;;;13.18;5.25;;;13.40;99.90;;;;;;4971266;28;20050;-81
2023/07/22 01:23:53;;;;;;;10.88;5.00;;;13.40;99.90;;;;;;4983219;28;20042;-81
2023/07/22 01:26:19;;;;;;;14.30;5.60;;;13.40;99.90;;;;;;4986276;28;20034;-82
2023/07/22 01:28:45;;;;;;;13.02;4.90;;;13.40;99.90;;;;;;4969894;28;20053;-81
2023/07/22 01:31:11;;;;;;;12.13;5.38;;;13.40;99.90;;;;;;4951268;28;20034;-81
2023/07/22 01:33:37;;;;;;;13.73;5.32;;;13.40;99.90;;;;;;4968953;28;20046;-81
2023/07/22 01:36:04;;;;;;;14.85;5.82;;;14.60;99.90;;;;;;4970667;28;20046;-81
2023/07/22 01:38:31;;;;;;;12.27;5.35;;;12.60;99.90;;;;;;4986689;28;20042;-81
2023/07/22 01:40:57;;;;;;;13.85;5.10;;;13.40;99.90;;;;;;4969971;28;20042;-81
2023/07/22 01:43:22;;;;;;;12.40;4.95;;;13.40;99.90;;;;;;5002965;28;20050;-81
2023/07/22 01:45:48;;;;;;;12.30;5.05;;;13.30;99.90;;;;;;4983593;28;20053;-81
2023/07/22 01:48:14;;;;;;;12.35;4.75;;;13.30;99.90;;;;;;4986389;28;20116;-81
2023/07/22 01:50:40;;;;;;;13.00;5.10;;;13.30;99.90;;;;;;4986324;28;20455;-81
2023/07/22 01:53:06;;;;;;;10.88;4.38;;;13.30;99.90;;;;;;4988232;28;20046;-81
2023/07/22 01:55:32;;;;;;;15.65;5.30;;;13.20;99.90;;;;;;4983218;28;20122;-81
2023/07/22 01:57:58;;;;;;;10.70;4.47;;;13.20;99.90;;;;;;4984728;28;20112;-81
2023/07/22 02:00:24;;;;;;;14.10;5.00;;;13.20;99.90;;;;;;4969945;28;20472;-81
2023/07/22 02:02:50;;;;;;;12.27;4.97;;;13.20;99.90;;;;;;4985048;28;20101;-81
2023/07/22 02:05:16;;;;;;;13.35;4.90;;;13.10;99.90;;;;;;4967737;28;20121;-81
2023/07/22 02:07:42;;;;;;;10.35;4.60;;;13.10;99.90;;;;;;4954760;28;20038;-81
2023/07/22 02:10:09;;;;;;;10.10;4.38;;;13.10;99.90;;;;;;4952704;28;20081;-81
2023/07/22 02:12:35;;;;;;;10.90;4.30;;;13.10;99.90;;;;;;4984743;28;20747;-81
2023/07/22 02:15:02;;;;;;;10.65;4.18;;;13.10;99.90;;;;;;4984133;28;20108;-81
2023/07/22 02:17:28;;;;;;;11.88;4.47;;;13.10;99.90;;;;;;4966581;28;20066;-81
2023/07/22 02:19:54;;;;;;;12.43;4.82;;;13.10;99.90;;;;;;4969692;28;20053;-81
2023/07/22 02:22:20;;;;;;;11.07;4.35;;;13.10;99.90;;;;;;4968614;28;20049;-81
2023/07/22 02:24:46;;;;;;;10.68;4.40;;;13.10;99.90;;;;;;4985881;28;20038;-81
2023/07/22 02:27:11;;;;;;;10.75;4.70;;;13.10;99.90;;;;;;4969335;28;20042;-81
2023/07/22 02:29:37;;;;;;;13.65;4.72;;;13.00;99.90;;;;;;4970632;28;20045;-81
2023/07/22 02:32:03;;;;;;;10.95;4.10;;;13.00;99.90;;;;;;4966681;28;20049;-81
2023/07/22 02:34:29;;;;;;;10.40;4.45;;;13.10;99.90;;;;;;4968209;28;20049;-80
2023/07/22 02:36:55;;;;;;;9.65;4.15;;;13.00;99.90;;;;;;5001013;28;20492;-81
2023/07/22 02:39:20;;;;;;;11.95;4.30;;;13.00;99.90;;;;;;4985664;28;20247;-81
2023/07/22 02:41:46;;;;;;;10.82;4.25;;;13.00;99.90;;;;;;4985209;28;20134;-81
2023/07/22 02:44:12;;;;;;;13.20;5.00;;;13.00;99.90;;;;;;4968624;28;20035;-81
2023/07/22 02:46:38;;;;;;;11.93;4.78;;;13.00;99.90;;;;;;4986607;28;20121;-81
2023/07/22 02:49:05;;;;;;;12.35;4.28;;;13.00;99.90;;;;;;4953523;28;20615;-81
2023/07/22 02:51:30;;;;;;;12.77;4.55;;;13.00;99.90;;;;;;4954481;28;20506;-80
2023/07/22 02:53:56;;;;;;;13.15;4.63;;;13.00;99.90;;;;;;4967858;28;20042;-81
2023/07/22 02:56:23;;;;;;;13.73;5.40;;;13.00;99.90;;;;;;4986014;28;20134;-81
2023/07/22 02:58:50;;;;;;;11.43;4.50;;;12.90;99.90;;;;;;4983639;28;20058;-81
2023/07/22 03:01:15;;;;;;;12.40;4.93;;;12.90;99.90;;;;;;4984279;28;20053;-80
2023/07/22 03:03:41;;;;;;;12.00;4.70;;;12.90;99.90;;;;;;4952538;28;20416;-81
2023/07/22 03:06:09;;;;;;;12.35;5.07;;;12.80;99.90;;;;;;4984745;28;20034;-81
2023/07/22 03:08:35;;;;;;;13.30;4.38;;;12.80;99.90;;;;;;4999542;28;20042;-81
2023/07/22 03:11:01;;;;;;;11.73;4.78;;;12.80;99.90;;;;;;4968011;28;20180;-81
2023/07/22 03:13:29;;;;;;;12.07;4.43;;;12.80;99.90;;;;;;4968055;28;20043;-81
2023/07/22 03:15:55;;;;;;;16.40;4.93;;;12.80;99.90;;;;;;4968384;28;20499;-81
2023/07/22 03:18:21;;;;;;;12.85;4.88;;;12.80;99.90;;;;;;4965195;28;20118;-81
2023/07/22 03:20:47;;;;;;;12.18;4.28;;;12.80;99.90;;;;;;4982481;28;20058;-81
2023/07/22 03:23:13;;;;;;;9.45;3.92;;;12.80;99.90;;;;;;4983567;28;20081;-81
2023/07/22 03:25:39;;;;;;;11.05;4.80;;;12.80;99.90;;;;;;4985040;28;20062;-81
2023/07/22 03:28:06;;;;;;;11.15;5.05;;;12.80;99.90;;;;;;4983087;28;20034;-81
2023/07/22 03:30:33;;;;;;;12.88;5.15;;;12.70;99.90;;;;;;4967747;28;20034;-80
2023/07/22 03:33:00;;;;;;;12.60;4.75;;;12.70;99.90;;;;;;4967276;28;20045;-80
2023/07/22 03:35:26;;;;;;;15.25;4.95;;;12.70;99.90;;;;;;4983804;28;20049;-80
2023/07/22 03:37:52;;;;;;;11.88;4.82;;;12.70;99.90;;;;;;4968011;28;20061;-80
2023/07/22 03:40:21;;;;;;;13.82;5.32;;;12.70;99.90;;;;;;4983446;28;20134;-81
2023/07/22 03:42:51;;;;;;;10.35;4.93;;;12.70;99.90;;;;;;4965017;28;20129;-81
2023/07/22 03:45:18;;;;;;;11.57;4.65;;;12.70;99.90;;;;;;4983048;28;20031;-81
2023/07/22 03:47:45;;;;;;;11.27;4.55;;;12.70;99.90;;;;;;4997203;28;20105;-80
2023/07/22 03:50:11;;;;;;;13.02;4.97;;;12.70;99.90;;;;;;4984282;28;20403;-81
2023/07/22 03:52:37;;;;;;;12.38;4.90;;;12.70;99.90;;;;;;4981219;28;20038;-81
2023/07/22 03:55:05;;;;;;;13.60;5.57;;;12.70;99.90;;;;;;4985300;28;20074;-80
2023/07/22 03:57:31;;;;;;;11.45;4.82;;;12.70;99.90;;;;;;4998495;28;21449;-81
2023/07/22 03:59:57;;;;;;;14.10;4.80;;;12.70;99.90;;;;;;4982190;28;20042;-80
2023/07/22 04:02:24;;;;;;;11.95;4.75;;;12.70;99.90;;;;;;4982406;28;20896;-81
2023/07/22 04:04:54;;;;;;;11.07;4.63;;;12.70;99.90;;;;;;4965821;28;20108;-80
2023/07/22 04:07:21;;;;;;;12.07;4.85;;;12.80;99.90;;;;;;4998209;28;20101;-81
2023/07/22 04:09:47;;;;;;;10.98;4.47;;;12.80;99.90;;;;;;4969390;28;20050;-81
2023/07/22 04:12:13;;;;;;;11.30;4.50;;;12.90;99.90;;;;;;4968379;28;20046;-81
2023/07/22 04:14:40;;;;;;;12.32;5.05;;;12.90;99.90;;;;;;4984215;28;20126;-81
2023/07/22 04:17:06;;;;;;;11.82;4.88;;;13.00;99.90;;;;;;4966577;28;20054;-80
2023/07/22 04:19:32;;;;;;;11.40;4.53;;;13.10;99.90;;;;;;4999702;28;20097;-81
2023/07/22 04:21:57;;;;;;;11.27;5.05;;;13.10;99.90;;;;;;4969459;28;20485;-81
2023/07/22 04:24:24;;;;;;;12.45;4.57;;;13.20;99.90;;;;;;4982900;28;20042;-81
2023/07/22 04:26:51;;;;;;;11.63;5.35;;;13.20;99.90;;;;;;4964301;28;20073;-81
2023/07/22 04:29:17;;;;;;;11.52;5.13;;;13.20;99.90;;;;;;4981673;28;20063;-81
2023/07/22 04:31:42;;;;;;;12.40;5.28;;;13.30;99.90;;;;;;4964907;28;20503;-80
2023/07/22 04:34:09;;;;;;;10.43;4.50;;;13.30;99.90;;;;;;4982291;28;20145;-81
2023/07/22 04:36:36;;;;;;;11.93;4.60;;;13.30;99.90;;;;;;5001371;28;20487;-81
2023/07/22 04:39:05;;;;;;;11.30;4.60;;;13.30;99.90;;;;;;4983937;28;20035;-81
2023/07/22 04:41:31;;;;;;;10.60;4.30;;;13.40;99.90;;;;;;4966412;28;20044;-81
2023/07/22 04:43:58;;;;;;;12.15;4.47;;;13.50;99.90;;;;;;4949250;28;20480;-81
2023/07/22 04:46:25;;;;;;;11.75;4.47;;;13.50;99.90;;;;;;4982778;28;20045;-81
2023/07/22 04:48:53;;;;;;;10.80;5.10;;;13.50;99.90;;;;;;4982915;28;20656;-81
2023/07/22 04:51:19;;;;;;;12.80;5.18;;;13.50;99.90;;;;;;4998025;28;20053;-81
2023/07/22 04:53:45;;;;;;;12.63;5.50;;;13.60;99.90;;;;;;4965626;28;20495;-81
2023/07/22 04:56:10;;;;;;;12.65;5.70;;;13.60;99.90;;;;;;4967704;28;20058;-81
2023/07/22 04:58:36;;;;;;;13.02;5.40;;;13.60;99.90;;;;;;4983329;28;20038;-81
2023/07/22 05:01:02;;;;;;;13.40;5.45;;;13.60;99.90;;;;;;4982805;28;20073;-81
2023/07/22 05:03:27;;;;;;;11.88;5.60;;;13.60;99.90;;;;;;4965769;28;20050;-80
2023/07/22 05:05:53;;;;;;;11.85;5.30;;;13.60;99.90;;;;;;4983217;28;20297;-81
2023/07/22 05:08:19;;;;;;;12.40;5.50;;;13.60;99.90;;;;;;4959066;28;20121;-81
2023/07/22 05:10:45;;;;;;;13.82;5.93;;;13.60;99.90;;;;;;4999968;28;20537;-81
2023/07/22 05:13:10;;;;;;;14.07;5.95;;;13.60;99.90;;;;;;4999730;28;21165;-82
2023/07/22 05:15:36;;;;;;;12.43;5.63;;;13.60;99.90;;;;;;4951292;28;20039;-81
2023/07/22 05:18:02;;;;;;;10.25;4.90;;;13.60;99.90;;;;;;4987396;28;20058;-81
2023/07/22 05:20:28;;;;;;;11.13;5.20;;;13.70;99.90;;;;;;4988409;28;20491;-81
2023/07/22 05:22:53;;;;;;;12.27;5.30;;;13.70;99.90;;;;;;4988852;28;20126;-81
2023/07/22 05:25:19;;;;;;;14.38;5.78;;;13.70;99.90;;;;;;4970509;28;20042;-81
2023/07/22 05:27:45;;;;;;;14.50;5.95;;;13.70;99.90;;;;;;4968821;28;20061;-81
2023/07/22 05:30:10;;;;;;;11.82;5.50;;;13.70;99.90;;;;;;4987853;28;20046;-80
2023/07/22 05:32:36;;;;;;;12.55;5.32;;;13.70;99.90;;;;;;4970942;28;20411;-80
2023/07/22 05:35:04;;;;;;;12.57;5.97;;;13.80;99.90;;;;;;4989096;28;20547;-80
2023/07/22 05:37:30;;;;;;;13.18;5.43;;;13.90;99.90;;;;;;4969325;28;20785;-81
2023/07/22 05:39:56;;;;;;;12.13;5.45;;;14.00;99.90;;;;;;4988321;28;20133;-81
2023/07/22 05:42:22;;;;;;;12.00;5.70;;;14.10;99.90;;;;;;4986891;28;20226;-80
2023/07/22 05:44:48;;;;;;;13.20;5.88;;;14.20;99.90;;;;;;5002494;28;20045;-81
2023/07/22 05:47:14;;;;;;;14.57;6.60;;;14.40;99.90;;;;;;5001761;28;20440;-81
2023/07/22 05:49:40;;;;;;;14.15;6.50;;;14.50;99.90;;;;;;4967167;28;20118;-81
2023/07/22 05:52:06;;;;;;;14.75;6.32;;;14.50;99.90;;;;;;4954455;28;20031;-80
2023/07/22 05:54:32;;;;;;;12.57;6.40;;;14.50;99.90;;;;;;4983505;28;20039;-81
2023/07/22 05:56:58;;;;;;;14.43;6.40;;;14.50;99.90;;;;;;4985255;28;20101;-81
2023/07/22 05:59:23;;;;;;;13.20;6.28;;;14.60;99.90;;;;;;4986820;28;20038;-81
2023/07/22 06:01:49;;;;;;;14.43;6.85;;;14.70;99.90;;;;;;4987359;28;20046;-80
2023/07/22 06:04:15;;;;;;;13.57;6.50;;;14.70;99.90;;;;;;4968263;28;20465;-81
2023/07/22 06:06:41;;;;;;;13.55;6.85;;;14.80;99.90;;;;;;5002191;28;20038;-81
2023/07/22 06:09:06;;;;;;;13.40;6.60;;;14.80;99.90;;;;;;4987224;28;20081;-81
2023/07/22 06:11:32;;;;;;;14.40;6.97;;;15.00;99.90;;;;;;4984909;28;20038;-81
2023/07/22 06:13:58;;;;;;;14.90;7.50;;;15.00;99.90;;;;;;4962876;28;20042;-81
2023/07/22 06:16:23;;;;;;;16.33;7.38;;;15.10;99.90;;;;;;4987460;28;20536;-81
2023/07/22 06:18:49;;;;;;;14.10;7.05;;;15.10;99.90;;;;;;4964592;28;20082;-82
2023/07/22 06:21:15;;;;;;;13.48;6.68;;;15.20;99.90;;;;;;4984264;28;20086;-80
2023/07/22 06:23:41;;;;;;;12.57;7.15;;;15.30;99.90;;;;;;4969781;28;20536;-81
2023/07/22 06:26:07;;;;;;;13.60;7.03;;;15.40;99.90;;;;;;4971848;28;20116;-81
2023/07/22 06:28:32;;;;;;;15.77;7.10;;;15.60;99.90;;;;;;4953008;28;20328;-81
2023/07/22 06:30:58;;;;;;;12.60;6.85;;;15.60;99.90;;;;;;4965084;28;20131;-81
2023/07/22 06:33:24;;;;;;;13.77;6.72;;;15.70;99.90;;;;;;4985624;28;20511;-81
2023/07/22 06:35:50;;;;;;;14.00;7.40;;;15.70;99.90;;;;;;4986802;28;20053;-81
2023/07/22 06:38:15;;;;;;;14.82;7.47;;;15.80;99.90;;;;;;4984601;28;20034;-81
2023/07/22 06:40:41;;;;;;;14.57;7.10;;;15.80;99.90;;;;;;4986285;28;20080;-81
2023/07/22 06:43:07;;;;;;;16.23;8.50;;;15.90;99.90;;;;;;4984946;28;20117;-81
2023/07/22 06:45:33;;;;;;;15.07;7.47;;;16.00;99.90;;;;;;4985147;28;20177;-81
2023/07/22 06:47:58;;;;;;;16.90;7.80;;;16.10;99.90;;;;;;4987584;28;20498;-81
2023/07/22 06:50:24;;;;;;;15.63;8.05;;;16.20;99.90;;;;;;4986602;28;20034;-81
2023/07/22 06:52:50;;;;;;;14.52;7.68;;;16.40;99.90;;;;;;5001015;28;20050;-81
2023/07/22 06:55:16;;;;;;;15.32;7.82;;;16.60;99.90;;;;;;4967862;28;20042;-81
2023/07/22 06:57:43;;;;;;;16.33;8.20;;;16.70;99.90;;;;;;4987048;28;20045;-81
2023/07/22 07:00:11;;;;;;;13.95;7.50;;;16.80;99.90;;;;;;4967824;28;20050;-81
2023/07/22 07:02:37;;;;;;;15.20;7.70;;;16.80;99.90;;;;;;4980641;28;20606;-81
2023/07/22 07:05:04;;;;;;;15.93;8.05;;;16.90;99.90;;;;;;4978654;28;20050;-82
2023/07/22 07:07:29;;;;;;;14.88;7.47;;;16.90;99.90;;;;;;4984636;28;20038;-81
2023/07/22 07:09:55;;;;;;;14.75;7.63;;;17.00;99.90;;;;;;4969958;28;20038;-81
2023/07/22 07:12:22;;;;;;;17.80;8.55;;;17.00;99.90;;;;;;4968261;28;20490;-81
2023/07/22 07:14:51;;;;;;;14.75;7.78;;;17.10;99.90;;;;;;4997247;28;20050;-81
2023/07/22 07:17:17;;;;;;;18.67;7.85;;;17.10;99.90;;;;;;4967401;28;20084;-81
2023/07/22 07:19:43;;;;;;;15.30;7.80;;;17.20;99.90;;;;;;4984487;28;20492;-82
2023/07/22 07:22:09;;;;;;;14.75;7.32;;;17.20;99.90;;;;;;4983944;28;20714;-81
2023/07/22 07:24:34;;;;;;;13.18;7.15;;;17.30;99.90;;;;;;4960673;28;20117;-82
2023/07/22 07:27:00;;;;;;;14.18;7.68;;;17.40;99.90;;;;;;4970022;28;20038;-82
2023/07/22 07:29:27;;;;;;;16.75;7.72;;;17.40;99.90;;;;;;4966700;28;20566;-82
2023/07/22 07:31:53;;;;;;;14.00;6.80;;;17.40;99.90;;;;;;4981622;28;20042;-81
2023/07/22 07:34:18;;;;;;;12.52;6.85;;;17.50;99.90;;;;;;4983438;28;20038;-81
2023/07/22 07:36:44;;;;;;;13.10;6.95;;;17.40;99.90;;;;;;4969640;28;20050;-81
2023/07/22 07:39:10;;;;;;;14.98;7.38;;;17.30;99.90;;;;;;4985035;28;20393;-82
2023/07/22 07:41:35;;;;;;;14.57;6.95;;;17.20;99.90;;;;;;4950902;28;20042;-82
2023/07/22 07:44:01;;;;;;;15.30;7.43;;;17.20;99.90;;;;;;4985818;28;20041;-82
2023/07/22 07:46:28;;;;;;;14.43;7.20;;;17.20;99.90;;;;;;4984809;28;20030;-81
2023/07/22 07:48:59;;;;;;;14.25;7.00;;;17.20;99.90;;;;;;4966268;28;20177;-81
2023/07/22 07:51:26;;;;;;;15.05;8.25;;;17.20;99.90;;;;;;4982894;28;20043;-81
2023/07/22 07:53:53;;;;;;;14.07;7.50;;;17.40;99.90;;;;;;4982162;28;20046;-82
2023/07/22 07:56:19;;;;;;;14.55;7.35;;;17.40;99.90;;;;;;4982853;28;20038;-81
2023/07/22 07:58:47;;;;;;;14.95;7.60;;;17.40;99.90;;;;;;4978496;28;20046;-81
2023/07/22 08:01:13;;;;;;;14.18;7.32;;;17.50;99.90;;;;;;4983350;28;20042;-82
2023/07/22 08:03:41;;;;;;;14.57;7.63;;;17.50;99.90;;;;;;4966606;28;20039;-82
2023/07/22 08:06:07;;;;;;;16.17;7.53;;;17.70;99.90;;;;;;4978817;28;20042;-81
2023/07/22 08:08:33;;;;;;;14.45;7.88;;;17.60;99.90;;;;;;4979099;28;20034;-82
2023/07/22 08:11:01;;;;;;;14.55;7.53;;;17.70;99.90;;;;;;4980434;28;20038;-82
2023/07/22 08:13:29;;;;;;;12.50;6.72;;;17.80;99.90;;;;;;4982670;28;20046;-81
2023/07/22 08:15:55;;;;;;;14.23;7.32;;;17.90;99.90;;;;;;4985772;28;20050;-82
2023/07/22 08:18:21;;;;;;;15.52;7.03;;;18.00;99.90;;;;;;4973247;28;20061;-82
2023/07/22 08:20:47;;;;;;;11.77;6.22;;;18.10;99.90;;;;;;4956736;28;20045;-81
2023/07/22 08:23:14;;;;;;;13.13;6.90;;;18.30;99.90;;;;;;4975036;28;20046;-82
2023/07/22 08:25:39;;;;;;;11.10;5.53;;;18.40;99.90;;;;;;4991682;28;20038;-82
2023/07/22 08:28:05;;;;;;;11.50;6.07;;;18.50;99.90;;;;;;4975095;28;20045;-82
2023/07/22 08:30:31;;;;;;;11.48;6.07;;;18.50;99.90;;;;;;4955609;28;20045;-82
2023/07/22 08:32:56;;;;;;;12.40;5.80;;;18.50;99.90;;;;;;4990995;28;20112;-82
2023/07/22 08:35:22;;;;;;;14.48;6.40;;;18.50;99.90;;;;;;4975938;28;20057;-82
2023/07/22 08:37:48;;;;;;;10.52;5.03;;;18.50;99.90;;;;;;4973056;28;20042;-83
2023/07/22 08:40:14;;;;;;;11.48;5.63;;;18.50;99.90;;;;;;4974018;28;20470;-82
2023/07/22 08:42:41;;;;;;;12.15;5.55;;;18.40;99.90;;;;;;4983545;28;20042;-82
2023/07/22 08:45:10;;;;;;;11.82;6.10;;;18.40;99.90;;;;;;4973151;28;20050;-81
2023/07/22 08:47:43;;;;;;;10.55;5.25;;;18.40;99.90;;;;;;4963141;28;20443;-82
2023/07/22 08:50:11;;;;;;;11.73;5.22;;;18.40;99.90;;;;;;4987088;28;20535;-81
2023/07/22 08:52:38;;;;;;;10.52;5.20;;;18.50;99.90;;;;;;4993020;28;20046;-82
2023/07/22 08:55:04;;;;;;;14.32;4.95;;;18.60;99.90;;;;;;4985595;28;20050;-82
2023/07/22 08:57:31;;;;;;;10.38;4.68;;;18.70;99.90;;;;;;4978582;28;20100;-82
2023/07/22 08:59:57;;;;;;;9.52;4.20;;;18.80;99.90;;;;;;4976928;28;20104;-82
2023/07/22 09:02:27;;;;;;;10.23;5.03;;;18.80;99.90;;;;;;4978436;28;20052;-83
2023/07/22 09:04:52;;;;;;;9.25;4.50;;;19.00;99.90;;;;;;4968833;28;20057;-82
2023/07/22 09:07:18;;;;;;;10.88;4.65;;;19.10;99.90;;;;;;4979296;28;20629;-82
2023/07/22 09:09:45;;;;;;;9.48;4.35;;;19.10;99.90;;;;;;4993581;28;20038;-81
2023/07/22 09:12:14;;;;;;;10.93;4.53;;;19.20;99.90;;;;;;4991761;28;20130;-82
2023/07/22 09:14:40;;;;;;;10.77;4.72;;;19.30;99.90;;;;;;4995129;28;20061;-82
2023/07/22 09:17:06;;;;;;;9.25;4.13;;;19.30;99.90;;;;;;4989002;28;20068;-82
2023/07/22 09:19:32;;;;;;;9.18;3.80;;;19.30;99.90;;;;;;5003687;28;20418;-81
2023/07/22 09:21:58;;;;;;;9.85;4.13;;;19.30;99.90;;;;;;4953964;28;20129;-82
2023/07/22 09:24:26;;;;;;;8.80;4.05;;;19.30;99.90;;;;;;4990671;28;20583;-81
2023/07/22 09:26:52;;;;;;;9.60;4.05;;;19.30;99.90;;;;;;4975126;28;20070;-82
2023/07/22 09:29:18;;;;;;;10.77;3.90;;;19.20;99.90;;;;;;4992201;28;20074;-81
2023/07/22 09:31:53;;;;;;;9.40;3.92;;;19.10;99.90;;;;;;4990669;28;20049;-81
2023/07/22 09:34:19;;;;;;;9.80;4.28;;;19.10;99.90;;;;;;4987769;28;20500;-81
2023/07/22 09:36:52;;;;;;;8.82;3.90;;;18.90;99.90;;;;;;4957740;28;20050;-82
2023/07/22 09:39:18;;;;;;;10.77;4.70;;;18.80;99.90;;;;;;4989030;28;20034;-82
2023/07/22 09:41:44;;;;;;;12.40;5.18;;;18.60;99.90;;;;;;4983994;28;20388;-83
2023/07/22 09:44:13;;;;;;;11.75;5.70;;;18.40;99.90;;;;;;4988282;28;20038;-86
2023/07/22 09:46:39;;;;;;;12.82;6.00;;;18.20;99.90;;;;;;4973907;28;20488;-84
2023/07/22 09:49:06;;;;;;;12.02;5.80;;;18.10;99.90;;;;;;4968676;28;20050;-83
2023/07/22 09:51:40;;;;;;;11.73;6.13;;;17.90;99.90;;;;;;5001335;28;20126;-83
2023/07/22 09:54:07;;;;;;;13.02;6.72;;;17.90;99.90;;;;;;4985350;28;20352;-84
2023/07/22 09:56:44;;;;;;;12.27;6.68;;;17.80;99.90;;;;;;4969151;28;20166;-84
2023/07/22 09:59:11;;;;;;;14.63;8.00;;;17.90;99.90;;;;;;4973063;28;20080;-84
2023/07/22 10:01:39;;;;;;;17.35;7.75;;;17.80;99.90;;;;;;4987488;28;20494;-84
2023/07/22 10:04:05;;;;;;;15.35;7.85;;;17.80;99.90;;;;;;5006109;28;20083;-83
2023/07/22 10:06:32;;;;;;;13.55;7.50;;;17.90;99.90;;;;;;4970996;28;20042;-84
2023/07/22 10:09:04;;;;;;;13.00;7.10;;;17.90;99.90;;;;;;4971078;28;20042;-84
2023/07/22 10:11:32;;;;;;;13.88;7.82;;;17.90;99.90;;;;;;4999192;28;20038;-83
2023/07/22 10:13:59;;;;;;;12.68;7.28;;;17.80;99.90;;;;;;4989815;28;20046;-84
2023/07/22 10:16:25;;;;;;;14.25;7.32;;;17.80;99.90;;;;;;4990963;28;20067;-83
2023/07/22 10:18:51;;;;;;;15.40;7.13;;;17.70;99.90;;;;;;4972770;28;20346;-83
2023/07/22 10:21:18;;;;;;;12.63;6.95;;;17.70;99.90;;;;;;4973079;28;20043;-82
2023/07/22 10:23:47;;;;;;;13.85;7.25;;;17.70;99.90;;;;;;4955881;28;20137;-83
2023/07/22 10:26:16;;;;;;;13.80;7.68;;;17.70;99.90;;;;;;4990601;28;20034;-83
2023/07/22 10:28:44;;;;;;;15.57;7.97;;;17.70;99.90;;;;;;4970757;28;20529;-83
2023/07/22 10:31:10;;;;;;;14.48;8.10;;;17.70;99.90;;;;;;4988145;28;20040;-82
2023/07/22 10:33:35;;;;;;;14.43;7.75;;;17.70;99.90;;;;;;4988527;28;20042;-82
2023/07/22 10:36:07;;;;;;;12.65;6.40;;;17.70;99.90;;;;;;4972244;28;20117;-82
2023/07/22 10:38:34;;;;;;;13.13;6.45;;;17.60;99.90;;;;;;4974563;28;20060;-82
2023/07/22 10:41:00;;;;;;;12.50;6.40;;;17.60;99.90;;;;;;4987665;28;20056;-82
2023/07/22 10:43:31;;;;;;;12.15;6.20;;;17.60;99.90;;;;;;4954801;28;20039;-82
2023/07/22 10:46:10;;;;;;;12.60;5.70;;;17.60;99.90;;;;;;4984811;28;20072;-83
2023/07/22 10:48:37;;;;;;;9.80;5.10;;;17.60;99.90;;;;;;4625537;28;10000101;-83
2023/07/22 10:51:21;;;;;;;10.13;5.15;;;17.70;99.90;;;;;;4988084;28;20036;-84
2023/07/22 10:53:48;;;;;;;10.85;4.90;;;17.70;99.90;;;;;;4619620;28;10001430;-84
2023/07/22 10:56:18;;;;;;;9.93;4.95;;;17.70;99.90;;;;;;4949932;28;20054;-82
2023/07/22 10:58:44;;;;;;;11.52;4.95;;;17.70;99.90;;;;;;4995749;28;20385;-82
2023/07/22 11:01:28;;;;;;;11.18;5.00;;;17.60;99.90;;;;;;4986328;28;20127;-84
2023/07/22 11:04:18;;;;;;;12.48;4.60;;;17.60;99.90;;;;;;4984177;28;20050;-85
2023/07/22 11:06:43;;;;;;;10.23;4.75;;;17.50;99.90;;;;;;4985018;28;20042;-84
2023/07/22 11:09:27;;;;;;;10.05;4.80;;;17.40;99.90;;;;;;4984534;28;20380;-84
2023/07/22 11:12:06;;;;;;;10.35;4.90;;;16.70;99.90;;;;;;4971293;28;20102;-82
2023/07/22 11:14:49;;;;;;;11.70;4.97;;;17.40;99.90;;;;;;4971218;28;20046;-82
2023/07/22 11:17:17;;;;;;;10.98;4.95;;;17.30;99.90;;;;;;4967729;28;20615;-82
2023/07/22 11:19:43;;;;;;;9.57;5.10;;;17.30;99.90;;;;;;4988525;28;20522;-82
2023/07/22 11:22:10;;;;;;;10.63;5.20;;;17.30;99.90;;;;;;4970867;28;20545;-82
2023/07/22 11:24:37;;;;;;;10.90;5.53;;;17.30;99.90;;;;;;4987222;28;20096;-84
2023/07/22 11:27:05;;;;;;;10.68;5.32;;;17.30;99.90;;;;;;4999708;28;20562;-85
2023/07/22 11:29:31;;;;;;;10.30;5.18;;;17.30;99.90;;;;;;4987306;28;20595;-85
2023/07/22 11:31:57;;;;;;;11.88;5.68;;;17.30;99.90;;;;;;5004009;28;20034;-85
2023/07/22 11:34:24;;;;;;;11.25;5.35;;;17.20;99.90;;;;;;4966968;28;20300;-85
2023/07/22 11:36:54;;;;;;;11.25;5.68;;;17.20;99.90;;;;;;4985661;28;20047;-85
2023/07/22 11:39:22;;;;;;;11.05;5.15;;;17.20;99.90;;;;;;4996137;28;20137;-84
2023/07/22 11:41:49;;;;;;;10.18;5.13;;;17.20;99.90;;;;;;4944296;28;20598;-85
2023/07/22 11:44:22;;;;;;;10.77;5.43;;;17.10;99.90;;;;;;4961229;28;20046;-84
2023/07/22 11:47:03;;;;;;;10.63;5.78;;;17.10;99.90;;;;;;4986903;28;20524;-84
2023/07/22 11:49:37;;;;;;;11.48;6.00;;;17.00;99.90;;;;;;4965488;28;20049;-85
2023/07/22 11:52:10;;;;;;;10.88;5.65;;;17.00;99.90;;;;;;5004453;28;20034;-85
2023/07/22 11:54:40;;;;;;;10.48;6.13;;;17.00;99.90;;;;;;4972181;28;20484;-85
2023/07/22 11:57:23;;;;;;;12.13;6.45;;;17.00;99.90;;;;;;4986913;28;20113;-84
2023/07/22 11:59:58;;;;;;;12.13;6.55;;;17.00;99.90;;;;;;4986416;28;20459;-84
2023/07/22 12:02:26;;;;;;;12.13;6.50;;;17.00;99.90;;;;;;4970404;28;20045;-85
2023/07/22 12:05:04;;;;;;;13.23;7.47;;;17.00;99.90;;;;;;4989566;28;20105;-85
2023/07/22 12:07:35;;;;;;;11.88;7.18;;;17.00;99.90;;;;;;4972251;28;20565;-85
2023/07/22 12:10:05;;;;;;;12.82;7.35;;;17.00;99.90;;;;;;4973067;28;20435;-85
2023/07/22 12:12:46;;;;;;;15.27;7.63;;;17.00;99.90;;;;;;4972040;28;20077;-84
2023/07/22 12:15:15;;;;;;;15.10;8.63;;;17.00;99.90;;;;;;4988668;28;20026;-84
2023/07/22 12:18:00;;;;;;;11.65;7.50;;;16.90;99.90;;;;;;4987306;28;20466;-84
2023/07/22 12:20:31;;;;;;;12.45;8.27;;;17.00;99.90;;;;;;4956906;28;20043;-85
2023/07/22 12:22:57;;;;;;;13.27;8.23;;;17.00;99.90;;;;;;4988007;28;20046;-85
2023/07/22 12:25:23;;;;;;;13.18;8.27;;;17.00;99.90;;;;;;4976118;28;20069;-85
2023/07/22 12:27:49;;;;;;;12.95;8.32;;;17.10;99.90;;;;;;5010685;28;20042;-85
2023/07/22 12:30:15;;;;;;;14.60;8.30;;;17.10;99.90;;;;;;4962711;28;20427;-85
2023/07/22 12:32:41;;;;;;;14.00;8.43;;;17.20;99.90;;;;;;4979379;28;20053;-85
2023/07/22 12:35:08;;;;;;;13.93;8.40;;;17.20;99.90;;;;;;5003973;28;20042;-85
2023/07/22 12:37:34;;;;;;;14.38;8.88;;;17.30;99.90;;;;;;4991256;28;20483;-85